sensor_id;sensor_type;location;lat;lon;timestamp;temperature;humidity
71128;SHT30;59249;59.736;30.568;2023-05-24T00:00:53;13.54;75.68
71128;SHT30;59249;59.736;30.568;2023-05-24T00:03:22;13.50;75.77
71128;SHT30;59249;59.736;30.568;2023-05-24T00:05:51;13.50;75.74
71128;SHT30;59249;59.736;30.568;2023-05-24T00:08:20;13.50;76.43
71128;SHT30;59249;59.736;30.568;2023-05-24T00:10:48;13.51;76.40
71128;SHT30;59249;59.736;30.568;2023-05-24T00:13:17;13.51;76.37
71128;SHT30;59249;59.736;30.568;2023-05-24T00:15:47;13.48;76.49
71128;SHT30;59249;59.736;30.568;2023-05-24T00:18:16;13.44;76.29
71128;SHT30;59249;59.736;30.568;2023-05-24T00:20:45;13.45;76.89
71128;SHT30;59249;59.736;30.568;2023-05-24T00:23:14;13.48;78.00
71128;SHT30;59249;59.736;30.568;2023-05-24T00:25:43;13.51;77.96
71128;SHT30;59249;59.736;30.568;2023-05-24T00:28:12;13.58;77.82
71128;SHT30;59249;59.736;30.568;2023-05-24T00:30:41;13.65;78.02
71128;SHT30;59249;59.736;30.568;2023-05-24T00:33:12;13.71;77.67
71128;SHT30;59249;59.736;30.568;2023-05-24T00:35:40;13.74;77.28
71128;SHT30;59249;59.736;30.568;2023-05-24T00:38:09;13.78;77.16
71128;SHT30;59249;59.736;30.568;2023-05-24T00:40:38;13.83;77.22
71128;SHT30;59249;59.736;30.568;2023-05-24T00:43:07;13.80;76.86
71128;SHT30;59249;59.736;30.568;2023-05-24T00:45:37;13.81;76.85
71128;SHT30;59249;59.736;30.568;2023-05-24T00:48:06;13.81;76.64
71128;SHT30;59249;59.736;30.568;2023-05-24T00:50:38;13.71;76.94
71128;SHT30;59249;59.736;30.568;2023-05-24T00:53:09;13.62;77.05
71128;SHT30;59249;59.736;30.568;2023-05-24T00:55:39;13.57;77.21
71128;SHT30;59249;59.736;30.568;2023-05-24T00:58:08;13.55;77.47
71128;SHT30;59249;59.736;30.568;2023-05-24T01:00:37;13.41;77.62
71128;SHT30;59249;59.736;30.568;2023-05-24T01:03:06;13.34;77.43
71128;SHT30;59249;59.736;30.568;2023-05-24T01:05:38;13.27;77.53
71128;SHT30;59249;59.736;30.568;2023-05-24T01:08:16;13.15;77.68
71128;SHT30;59249;59.736;30.568;2023-05-24T01:10:55;13.04;77.56
71128;SHT30;59249;59.736;30.568;2023-05-24T01:13:35;12.93;77.89
71128;SHT30;59249;59.736;30.568;2023-05-24T01:16:15;12.90;77.87
71128;SHT30;59249;59.736;30.568;2023-05-24T01:18:51;12.80;78.59
71128;SHT30;59249;59.736;30.568;2023-05-24T01:21:53;12.69;79.09
71128;SHT30;59249;59.736;30.568;2023-05-24T01:24:35;12.67;78.87
71128;SHT30;59249;59.736;30.568;2023-05-24T01:27:12;12.65;79.09
71128;SHT30;59249;59.736;30.568;2023-05-24T01:29:42;12.60;79.14
71128;SHT30;59249;59.736;30.568;2023-05-24T01:32:11;12.56;79.55
71128;SHT30;59249;59.736;30.568;2023-05-24T01:34:40;12.58;79.33
71128;SHT30;59249;59.736;30.568;2023-05-24T01:37:09;12.65;79.17
71128;SHT30;59249;59.736;30.568;2023-05-24T01:39:39;12.62;79.49
71128;SHT30;59249;59.736;30.568;2023-05-24T01:42:25;12.69;79.33
71128;SHT30;59249;59.736;30.568;2023-05-24T01:45:04;12.75;80.05
71128;SHT30;59249;59.736;30.568;2023-05-24T01:47:48;12.88;79.65
71128;SHT30;59249;59.736;30.568;2023-05-24T01:50:27;13.14;79.16
71128;SHT30;59249;59.736;30.568;2023-05-24T01:53:03;13.30;78.60
71128;SHT30;59249;59.736;30.568;2023-05-24T01:55:36;13.53;78.14
71128;SHT30;59249;59.736;30.568;2023-05-24T01:58:09;13.65;77.91
71128;SHT30;59249;59.736;30.568;2023-05-24T02:00:40;13.83;77.46
71128;SHT30;59249;59.736;30.568;2023-05-24T02:03:13;13.93;77.17
71128;SHT30;59249;59.736;30.568;2023-05-24T02:05:44;14.08;76.75
71128;SHT30;59249;59.736;30.568;2023-05-24T02:08:13;14.37;76.47
71128;SHT30;59249;59.736;30.568;2023-05-24T02:10:42;14.65;75.81
71128;SHT30;59249;59.736;30.568;2023-05-24T02:13:12;14.71;75.04
71128;SHT30;59249;59.736;30.568;2023-05-24T02:15:42;14.88;74.88
71128;SHT30;59249;59.736;30.568;2023-05-24T02:18:14;15.16;73.77
71128;SHT30;59249;59.736;30.568;2023-05-24T02:21:05;15.25;72.95
71128;SHT30;59249;59.736;30.568;2023-05-24T02:23:33;15.36;72.19
71128;SHT30;59249;59.736;30.568;2023-05-24T02:26:02;15.34;71.82
71128;SHT30;59249;59.736;30.568;2023-05-24T02:28:32;15.44;71.72
71128;SHT30;59249;59.736;30.568;2023-05-24T02:31:02;15.64;71.30
71128;SHT30;59249;59.736;30.568;2023-05-24T02:33:32;15.87;71.06
71128;SHT30;59249;59.736;30.568;2023-05-24T02:36:03;16.11;70.69
71128;SHT30;59249;59.736;30.568;2023-05-24T02:38:31;16.32;70.23
71128;SHT30;59249;59.736;30.568;2023-05-24T02:41:01;16.58;69.33
71128;SHT30;59249;59.736;30.568;2023-05-24T02:43:32;16.77;68.48
71128;SHT30;59249;59.736;30.568;2023-05-24T02:46:01;16.81;68.39
71128;SHT30;59249;59.736;30.568;2023-05-24T02:48:30;16.97;67.93
71128;SHT30;59249;59.736;30.568;2023-05-24T02:50:59;17.07;67.72
71128;SHT30;59249;59.736;30.568;2023-05-24T02:53:29;17.23;67.50
71128;SHT30;59249;59.736;30.568;2023-05-24T02:55:59;17.35;67.06
71128;SHT30;59249;59.736;30.568;2023-05-24T02:58:34;17.51;66.51
71128;SHT30;59249;59.736;30.568;2023-05-24T03:01:07;17.67;66.25
71128;SHT30;59249;59.736;30.568;2023-05-24T03:03:36;17.81;65.78
71128;SHT30;59249;59.736;30.568;2023-05-24T03:06:06;17.93;65.30
71128;SHT30;59249;59.736;30.568;2023-05-24T03:08:34;18.04;65.37
71128;SHT30;59249;59.736;30.568;2023-05-24T03:11:04;18.21;64.89
71128;SHT30;59249;59.736;30.568;2023-05-24T03:13:35;18.27;64.63
71128;SHT30;59249;59.736;30.568;2023-05-24T03:16:05;18.48;64.43
71128;SHT30;59249;59.736;30.568;2023-05-24T03:18:34;18.52;64.20
71128;SHT30;59249;59.736;30.568;2023-05-24T03:21:05;18.54;64.11
71128;SHT30;59249;59.736;30.568;2023-05-24T03:23:34;18.51;64.28
71128;SHT30;59249;59.736;30.568;2023-05-24T03:26:05;18.49;64.17
71128;SHT30;59249;59.736;30.568;2023-05-24T03:28:50;18.27;64.29
71128;SHT30;59249;59.736;30.568;2023-05-24T03:31:26;18.09;64.45
71128;SHT30;59249;59.736;30.568;2023-05-24T03:33:59;17.90;64.93
71128;SHT30;59249;59.736;30.568;2023-05-24T03:36:29;17.72;65.93
71128;SHT30;59249;59.736;30.568;2023-05-24T03:38:59;17.49;66.39
71128;SHT30;59249;59.736;30.568;2023-05-24T03:41:35;17.52;66.62
71128;SHT30;59249;59.736;30.568;2023-05-24T03:44:07;17.45;66.92
71128;SHT30;59249;59.736;30.568;2023-05-24T03:46:37;17.42;67.30
71128;SHT30;59249;59.736;30.568;2023-05-24T03:49:07;17.45;67.31
71128;SHT30;59249;59.736;30.568;2023-05-24T03:51:37;17.37;67.71
71128;SHT30;59249;59.736;30.568;2023-05-24T03:54:06;17.36;67.66
71128;SHT30;59249;59.736;30.568;2023-05-24T03:56:36;17.30;68.29
71128;SHT30;59249;59.736;30.568;2023-05-24T03:59:07;17.33;68.22
71128;SHT30;59249;59.736;30.568;2023-05-24T04:01:36;17.26;69.10
71128;SHT30;59249;59.736;30.568;2023-05-24T04:04:04;17.27;69.02
71128;SHT30;59249;59.736;30.568;2023-05-24T04:06:35;17.34;69.09
71128;SHT30;59249;59.736;30.568;2023-05-24T04:09:04;17.33;69.93
71128;SHT30;59249;59.736;30.568;2023-05-24T04:11:42;17.36;70.09
71128;SHT30;59249;59.736;30.568;2023-05-24T04:14:14;17.42;70.21
71128;SHT30;59249;59.736;30.568;2023-05-24T04:16:43;17.41;70.46
71128;SHT30;59249;59.736;30.568;2023-05-24T04:19:14;17.51;70.60
71128;SHT30;59249;59.736;30.568;2023-05-24T04:21:44;17.59;70.72
71128;SHT30;59249;59.736;30.568;2023-05-24T04:24:13;17.69;70.42
71128;SHT30;59249;59.736;30.568;2023-05-24T04:26:43;17.65;70.94
71128;SHT30;59249;59.736;30.568;2023-05-24T04:29:17;17.65;71.66
71128;SHT30;59249;59.736;30.568;2023-05-24T04:31:53;17.79;70.69
71128;SHT30;59249;59.736;30.568;2023-05-24T04:34:27;17.94;70.55
71128;SHT30;59249;59.736;30.568;2023-05-24T04:37:00;18.11;70.55
71128;SHT30;59249;59.736;30.568;2023-05-24T04:39:30;18.17;70.34
71128;SHT30;59249;59.736;30.568;2023-05-24T04:41:58;18.29;70.42
71128;SHT30;59249;59.736;30.568;2023-05-24T04:44:30;18.38;70.21
71128;SHT30;59249;59.736;30.568;2023-05-24T04:46:59;18.52;69.59
71128;SHT30;59249;59.736;30.568;2023-05-24T04:49:30;18.63;69.10
71128;SHT30;59249;59.736;30.568;2023-05-24T04:51:59;18.66;69.47
71128;SHT30;59249;59.736;30.568;2023-05-24T04:54:27;18.76;69.16
71128;SHT30;59249;59.736;30.568;2023-05-24T04:56:56;18.88;69.26
71128;SHT30;59249;59.736;30.568;2023-05-24T04:59:25;19.03;68.85
71128;SHT30;59249;59.736;30.568;2023-05-24T05:01:55;19.15;68.45
71128;SHT30;59249;59.736;30.568;2023-05-24T05:04:24;19.13;69.25
71128;SHT30;59249;59.736;30.568;2023-05-24T05:06:53;19.13;69.32
71128;SHT30;59249;59.736;30.568;2023-05-24T05:09:24;19.10;69.08
71128;SHT30;59249;59.736;30.568;2023-05-24T05:11:54;19.22;69.04
71128;SHT30;59249;59.736;30.568;2023-05-24T05:14:23;19.26;68.98
71128;SHT30;59249;59.736;30.568;2023-05-24T05:16:52;19.32;69.04
71128;SHT30;59249;59.736;30.568;2023-05-24T05:19:22;19.46;68.65
71128;SHT30;59249;59.736;30.568;2023-05-24T05:21:51;19.61;68.45
71128;SHT30;59249;59.736;30.568;2023-05-24T05:24:20;19.61;68.09
71128;SHT30;59249;59.736;30.568;2023-05-24T05:26:49;19.64;68.10
71128;SHT30;59249;59.736;30.568;2023-05-24T05:29:19;19.65;67.95
71128;SHT30;59249;59.736;30.568;2023-05-24T05:31:50;19.77;67.87
71128;SHT30;59249;59.736;30.568;2023-05-24T05:34:19;19.89;66.87
71128;SHT30;59249;59.736;30.568;2023-05-24T05:36:50;19.89;67.44
71128;SHT30;59249;59.736;30.568;2023-05-24T05:39:18;19.97;67.15
71128;SHT30;59249;59.736;30.568;2023-05-24T05:41:47;19.94;67.93
71128;SHT30;59249;59.736;30.568;2023-05-24T05:44:18;19.97;68.29
71128;SHT30;59249;59.736;30.568;2023-05-24T05:46:50;20.05;68.67
71128;SHT30;59249;59.736;30.568;2023-05-24T05:49:19;20.12;67.99
71128;SHT30;59249;59.736;30.568;2023-05-24T05:51:53;20.15;68.45
71128;SHT30;59249;59.736;30.568;2023-05-24T05:54:25;20.21;68.26
71128;SHT30;59249;59.736;30.568;2023-05-24T05:57:00;20.33;68.13
71128;SHT30;59249;59.736;30.568;2023-05-24T05:59:29;20.36;66.99
71128;SHT30;59249;59.736;30.568;2023-05-24T06:02:02;20.34;66.53
71128;SHT30;59249;59.736;30.568;2023-05-24T06:04:33;20.40;66.05
71128;SHT30;59249;59.736;30.568;2023-05-24T06:07:10;20.48;65.70
71128;SHT30;59249;59.736;30.568;2023-05-24T06:09:39;20.40;66.28
71128;SHT30;59249;59.736;30.568;2023-05-24T06:12:08;20.46;66.52
71128;SHT30;59249;59.736;30.568;2023-05-24T06:14:40;20.58;65.91
71128;SHT30;59249;59.736;30.568;2023-05-24T06:17:09;20.65;65.20
71128;SHT30;59249;59.736;30.568;2023-05-24T06:19:41;20.68;65.01
71128;SHT30;59249;59.736;30.568;2023-05-24T06:22:12;20.78;64.86
71128;SHT30;59249;59.736;30.568;2023-05-24T06:24:43;20.76;64.59
71128;SHT30;59249;59.736;30.568;2023-05-24T06:27:12;20.83;63.96
71128;SHT30;59249;59.736;30.568;2023-05-24T06:29:41;20.82;63.85
71128;SHT30;59249;59.736;30.568;2023-05-24T06:32:13;20.76;63.41
71128;SHT30;59249;59.736;30.568;2023-05-24T06:34:42;20.74;63.72
71128;SHT30;59249;59.736;30.568;2023-05-24T06:37:13;20.76;64.00
71128;SHT30;59249;59.736;30.568;2023-05-24T06:39:42;20.85;63.80
71128;SHT30;59249;59.736;30.568;2023-05-24T06:42:11;20.80;62.45
71128;SHT30;59249;59.736;30.568;2023-05-24T06:44:45;20.77;62.88
71128;SHT30;59249;59.736;30.568;2023-05-24T06:47:14;20.82;61.95
71128;SHT30;59249;59.736;30.568;2023-05-24T06:49:45;20.78;62.63
71128;SHT30;59249;59.736;30.568;2023-05-24T06:52:16;20.84;62.86
71128;SHT30;59249;59.736;30.568;2023-05-24T06:54:49;20.92;62.43
71128;SHT30;59249;59.736;30.568;2023-05-24T06:57:18;20.88;62.79
71128;SHT30;59249;59.736;30.568;2023-05-24T06:59:47;20.86;62.18
71128;SHT30;59249;59.736;30.568;2023-05-24T07:02:17;20.97;61.12
71128;SHT30;59249;59.736;30.568;2023-05-24T07:04:53;21.00;60.82
71128;SHT30;59249;59.736;30.568;2023-05-24T07:07:27;21.03;61.79
71128;SHT30;59249;59.736;30.568;2023-05-24T07:09:57;20.95;62.03
71128;SHT30;59249;59.736;30.568;2023-05-24T07:12:26;21.00;62.64
71128;SHT30;59249;59.736;30.568;2023-05-24T07:14:55;21.15;61.51
71128;SHT30;59249;59.736;30.568;2023-05-24T07:17:26;21.24;61.94
71128;SHT30;59249;59.736;30.568;2023-05-24T07:19:58;21.18;62.57
71128;SHT30;59249;59.736;30.568;2023-05-24T07:22:33;21.26;62.33
71128;SHT30;59249;59.736;30.568;2023-05-24T07:25:06;21.32;61.18
71128;SHT30;59249;59.736;30.568;2023-05-24T07:27:37;21.34;61.14
71128;SHT30;59249;59.736;30.568;2023-05-24T07:30:09;21.43;61.37
71128;SHT30;59249;59.736;30.568;2023-05-24T07:33:06;21.43;60.31
71128;SHT30;59249;59.736;30.568;2023-05-24T07:35:46;21.45;60.97
71128;SHT30;59249;59.736;30.568;2023-05-24T07:38:21;21.54;61.64
71128;SHT30;59249;59.736;30.568;2023-05-24T07:40:51;21.59;61.09
71128;SHT30;59249;59.736;30.568;2023-05-24T07:43:22;21.64;60.13
71128;SHT30;59249;59.736;30.568;2023-05-24T07:46:06;21.66;60.38
71128;SHT30;59249;59.736;30.568;2023-05-24T07:48:38;21.59;59.84
71128;SHT30;59249;59.736;30.568;2023-05-24T07:51:07;21.69;59.69
71128;SHT30;59249;59.736;30.568;2023-05-24T07:53:40;21.83;58.73
71128;SHT30;59249;59.736;30.568;2023-05-24T07:56:24;21.83;57.45
71128;SHT30;59249;59.736;30.568;2023-05-24T07:59:07;21.87;58.30
71128;SHT30;59249;59.736;30.568;2023-05-24T08:01:44;21.85;58.54
71128;SHT30;59249;59.736;30.568;2023-05-24T08:04:17;21.87;57.28
71128;SHT30;59249;59.736;30.568;2023-05-24T08:06:45;21.98;56.96
71128;SHT30;59249;59.736;30.568;2023-05-24T08:09:20;22.01;56.96
71128;SHT30;59249;59.736;30.568;2023-05-24T08:12:06;22.10;57.47
71128;SHT30;59249;59.736;30.568;2023-05-24T08:14:53;22.17;57.21
71128;SHT30;59249;59.736;30.568;2023-05-24T08:17:23;22.10;57.52
71128;SHT30;59249;59.736;30.568;2023-05-24T08:20:19;22.18;57.60
71128;SHT30;59249;59.736;30.568;2023-05-24T08:22:50;22.31;57.52
71128;SHT30;59249;59.736;30.568;2023-05-24T08:25:32;22.48;57.04
71128;SHT30;59249;59.736;30.568;2023-05-24T08:28:08;22.57;55.08
71128;SHT30;59249;59.736;30.568;2023-05-24T08:30:55;22.57;54.80
71128;SHT30;59249;59.736;30.568;2023-05-24T08:33:33;22.57;54.03
71128;SHT30;59249;59.736;30.568;2023-05-24T08:36:10;22.50;54.92
71128;SHT30;59249;59.736;30.568;2023-05-24T08:38:49;22.57;54.35
71128;SHT30;59249;59.736;30.568;2023-05-24T08:41:30;22.65;53.75
71128;SHT30;59249;59.736;30.568;2023-05-24T08:44:16;22.71;52.77
71128;SHT30;59249;59.736;30.568;2023-05-24T08:46:50;22.86;53.15
71128;SHT30;59249;59.736;30.568;2023-05-24T08:49:26;22.85;52.81
71128;SHT30;59249;59.736;30.568;2023-05-24T08:52:09;22.90;53.04
71128;SHT30;59249;59.736;30.568;2023-05-24T08:54:54;22.99;53.01
71128;SHT30;59249;59.736;30.568;2023-05-24T08:57:27;23.12;52.92
71128;SHT30;59249;59.736;30.568;2023-05-24T08:59:57;23.18;51.68
71128;SHT30;59249;59.736;30.568;2023-05-24T09:02:27;23.31;50.80
71128;SHT30;59249;59.736;30.568;2023-05-24T09:05:16;23.36;50.19
71128;SHT30;59249;59.736;30.568;2023-05-24T09:07:54;23.52;49.67
71128;SHT30;59249;59.736;30.568;2023-05-24T09:10:31;23.46;49.32
71128;SHT30;59249;59.736;30.568;2023-05-24T09:13:35;23.50;47.65
71128;SHT30;59249;59.736;30.568;2023-05-24T09:16:16;23.41;48.22
71128;SHT30;59249;59.736;30.568;2023-05-24T09:18:52;23.43;47.61
71128;SHT30;59249;59.736;30.568;2023-05-24T09:21:24;23.44;47.57
71128;SHT30;59249;59.736;30.568;2023-05-24T09:23:57;23.38;47.58
71128;SHT30;59249;59.736;30.568;2023-05-24T09:26:29;23.39;46.86
71128;SHT30;59249;59.736;30.568;2023-05-24T09:29:06;23.41;46.85
71128;SHT30;59249;59.736;30.568;2023-05-24T09:31:39;23.50;46.18
71128;SHT30;59249;59.736;30.568;2023-05-24T09:34:15;23.49;45.97
71128;SHT30;59249;59.736;30.568;2023-05-24T09:36:46;23.62;46.83
71128;SHT30;59249;59.736;30.568;2023-05-24T09:39:24;23.75;46.44
71128;SHT30;59249;59.736;30.568;2023-05-24T09:41:57;23.83;46.33
71128;SHT30;59249;59.736;30.568;2023-05-24T09:44:35;23.78;45.85
71128;SHT30;59249;59.736;30.568;2023-05-24T09:47:28;23.93;46.68
71128;SHT30;59249;59.736;30.568;2023-05-24T09:49:58;24.07;45.44
71128;SHT30;59249;59.736;30.568;2023-05-24T09:52:36;24.06;45.27
71128;SHT30;59249;59.736;30.568;2023-05-24T09:55:14;24.28;46.00
71128;SHT30;59249;59.736;30.568;2023-05-24T09:58:01;24.32;44.02
71128;SHT30;59249;59.736;30.568;2023-05-24T10:00:39;24.19;43.46
71128;SHT30;59249;59.736;30.568;2023-05-24T10:03:16;24.07;43.81
71128;SHT30;59249;59.736;30.568;2023-05-24T10:05:45;24.22;43.49
71128;SHT30;59249;59.736;30.568;2023-05-24T10:08:25;24.10;44.20
71128;SHT30;59249;59.736;30.568;2023-05-24T10:11:01;24.11;44.17
71128;SHT30;59249;59.736;30.568;2023-05-24T10:13:36;24.14;44.72
71128;SHT30;59249;59.736;30.568;2023-05-24T10:16:21;24.12;44.56
71128;SHT30;59249;59.736;30.568;2023-05-24T10:18:59;24.22;43.67
71128;SHT30;59249;59.736;30.568;2023-05-24T10:21:31;24.20;43.89
71128;SHT30;59249;59.736;30.568;2023-05-24T10:24:02;24.25;43.63
71128;SHT30;59249;59.736;30.568;2023-05-24T10:26:40;24.35;42.75
71128;SHT30;59249;59.736;30.568;2023-05-24T10:29:26;24.33;43.14
71128;SHT30;59249;59.736;30.568;2023-05-24T10:32:11;24.43;43.18
71128;SHT30;59249;59.736;30.568;2023-05-24T10:34:43;24.34;44.18
71128;SHT30;59249;59.736;30.568;2023-05-24T10:37:25;24.19;43.52
71128;SHT30;59249;59.736;30.568;2023-05-24T10:39:59;24.32;43.67
71128;SHT30;59249;59.736;30.568;2023-05-24T10:42:31;24.25;43.07
71128;SHT30;59249;59.736;30.568;2023-05-24T10:45:30;24.26;42.09
71128;SHT30;59249;59.736;30.568;2023-05-24T10:48:57;24.29;43.76
71128;SHT30;59249;59.736;30.568;2023-05-24T10:51:38;24.38;43.01
71128;SHT30;59249;59.736;30.568;2023-05-24T10:54:16;24.30;42.20
71128;SHT30;59249;59.736;30.568;2023-05-24T10:56:49;24.17;42.25
71128;SHT30;59249;59.736;30.568;2023-05-24T10:59:36;24.28;42.29
71128;SHT30;59249;59.736;30.568;2023-05-24T11:02:34;24.36;42.27
71128;SHT30;59249;59.736;30.568;2023-05-24T11:05:34;24.47;41.83
71128;SHT30;59249;59.736;30.568;2023-05-24T11:09:03;24.53;42.26
71128;SHT30;59249;59.736;30.568;2023-05-24T11:12:23;24.52;40.88
71128;SHT30;59249;59.736;30.568;2023-05-24T11:15:56;24.61;41.73
71128;SHT30;59249;59.736;30.568;2023-05-24T11:18:26;24.60;41.87
71128;SHT30;59249;59.736;30.568;2023-05-24T11:20:58;24.54;42.53
71128;SHT30;59249;59.736;30.568;2023-05-24T11:23:30;24.45;41.45
71128;SHT30;59249;59.736;30.568;2023-05-24T11:26:11;24.40;41.30
71128;SHT30;59249;59.736;30.568;2023-05-24T11:28:41;24.53;41.60
71128;SHT30;59249;59.736;30.568;2023-05-24T11:31:10;24.56;42.03
71128;SHT30;59249;59.736;30.568;2023-05-24T11:33:40;24.68;41.19
71128;SHT30;59249;59.736;30.568;2023-05-24T11:36:12;24.78;41.65
71128;SHT30;59249;59.736;30.568;2023-05-24T11:38:45;24.94;41.46
71128;SHT30;59249;59.736;30.568;2023-05-24T11:41:17;24.98;42.32
71128;SHT30;59249;59.736;30.568;2023-05-24T11:43:50;25.15;41.95
71128;SHT30;59249;59.736;30.568;2023-05-24T11:46:19;25.22;41.57
71128;SHT30;59249;59.736;30.568;2023-05-24T11:48:55;25.17;40.58
71128;SHT30;59249;59.736;30.568;2023-05-24T11:51:30;25.08;40.92
71128;SHT30;59249;59.736;30.568;2023-05-24T11:53:59;24.87;39.93
71128;SHT30;59249;59.736;30.568;2023-05-24T11:56:30;24.73;40.36
71128;SHT30;59249;59.736;30.568;2023-05-24T11:59:13;24.80;41.14
71128;SHT30;59249;59.736;30.568;2023-05-24T12:01:43;24.93;41.09
71128;SHT30;59249;59.736;30.568;2023-05-24T12:04:13;24.92;41.20
71128;SHT30;59249;59.736;30.568;2023-05-24T12:06:44;24.82;41.01
71128;SHT30;59249;59.736;30.568;2023-05-24T12:09:13;24.84;41.21
71128;SHT30;59249;59.736;30.568;2023-05-24T12:11:47;24.92;40.58
71128;SHT30;59249;59.736;30.568;2023-05-24T12:14:18;25.04;41.04
71128;SHT30;59249;59.736;30.568;2023-05-24T12:16:49;25.13;40.21
71128;SHT30;59249;59.736;30.568;2023-05-24T12:19:21;25.08;40.17
71128;SHT30;59249;59.736;30.568;2023-05-24T12:22:04;25.00;40.11
71128;SHT30;59249;59.736;30.568;2023-05-24T12:24:36;24.90;40.15
71128;SHT30;59249;59.736;30.568;2023-05-24T12:27:05;25.00;40.69
71128;SHT30;59249;59.736;30.568;2023-05-24T12:29:37;25.08;39.82
71128;SHT30;59249;59.736;30.568;2023-05-24T12:32:09;25.11;40.44
71128;SHT30;59249;59.736;30.568;2023-05-24T12:34:42;25.12;40.78
71128;SHT30;59249;59.736;30.568;2023-05-24T12:37:14;25.24;40.69
71128;SHT30;59249;59.736;30.568;2023-05-24T12:39:43;25.22;38.85
71128;SHT30;59249;59.736;30.568;2023-05-24T12:42:11;25.12;39.03
71128;SHT30;59249;59.736;30.568;2023-05-24T12:44:41;25.21;39.72
71128;SHT30;59249;59.736;30.568;2023-05-24T12:47:11;25.15;39.69
71128;SHT30;59249;59.736;30.568;2023-05-24T12:49:41;25.12;39.74
71128;SHT30;59249;59.736;30.568;2023-05-24T12:52:12;25.17;38.75
71128;SHT30;59249;59.736;30.568;2023-05-24T12:54:41;25.17;39.07
71128;SHT30;59249;59.736;30.568;2023-05-24T12:57:09;25.30;38.68
71128;SHT30;59249;59.736;30.568;2023-05-24T12:59:38;25.22;39.09
71128;SHT30;59249;59.736;30.568;2023-05-24T13:02:08;25.34;38.91
71128;SHT30;59249;59.736;30.568;2023-05-24T13:04:36;25.48;38.66
71128;SHT30;59249;59.736;30.568;2023-05-24T13:07:05;25.32;37.90
71128;SHT30;59249;59.736;30.568;2023-05-24T13:09:36;25.20;38.48
71128;SHT30;59249;59.736;30.568;2023-05-24T13:12:06;25.02;38.64
71128;SHT30;59249;59.736;30.568;2023-05-24T13:14:35;25.02;38.67
71128;SHT30;59249;59.736;30.568;2023-05-24T13:17:05;25.18;39.53
71128;SHT30;59249;59.736;30.568;2023-05-24T13:19:34;25.21;38.70
71128;SHT30;59249;59.736;30.568;2023-05-24T13:22:03;25.19;38.51
71128;SHT30;59249;59.736;30.568;2023-05-24T13:24:31;25.12;38.76
71128;SHT30;59249;59.736;30.568;2023-05-24T13:27:01;25.07;40.20
71128;SHT30;59249;59.736;30.568;2023-05-24T13:29:31;25.06;40.51
71128;SHT30;59249;59.736;30.568;2023-05-24T13:32:11;24.98;38.94
71128;SHT30;59249;59.736;30.568;2023-05-24T13:34:40;25.02;39.60
71128;SHT30;59249;59.736;30.568;2023-05-24T13:37:09;25.13;38.82
71128;SHT30;59249;59.736;30.568;2023-05-24T13:39:38;25.22;38.23
71128;SHT30;59249;59.736;30.568;2023-05-24T13:42:08;25.19;38.81
71128;SHT30;59249;59.736;30.568;2023-05-24T13:44:38;25.31;38.86
71128;SHT30;59249;59.736;30.568;2023-05-24T13:47:07;25.45;38.85
71128;SHT30;59249;59.736;30.568;2023-05-24T13:49:36;25.47;39.71
71128;SHT30;59249;59.736;30.568;2023-05-24T13:52:05;25.67;40.13
71128;SHT30;59249;59.736;30.568;2023-05-24T13:54:34;25.80;39.37
71128;SHT30;59249;59.736;30.568;2023-05-24T13:57:03;25.81;38.78
71128;SHT30;59249;59.736;30.568;2023-05-24T13:59:34;25.71;38.89
71128;SHT30;59249;59.736;30.568;2023-05-24T14:02:03;25.66;38.78
71128;SHT30;59249;59.736;30.568;2023-05-24T14:04:32;25.57;39.01
71128;SHT30;59249;59.736;30.568;2023-05-24T14:07:01;25.76;38.82
71128;SHT30;59249;59.736;30.568;2023-05-24T14:09:31;25.98;38.77
71128;SHT30;59249;59.736;30.568;2023-05-24T14:12:00;26.10;38.83
71128;SHT30;59249;59.736;30.568;2023-05-24T14:14:29;26.28;38.31
71128;SHT30;59249;59.736;30.568;2023-05-24T14:17:02;26.25;38.09
71128;SHT30;59249;59.736;30.568;2023-05-24T14:19:31;26.57;37.16
71128;SHT30;59249;59.736;30.568;2023-05-24T14:22:01;26.83;37.36
71128;SHT30;59249;59.736;30.568;2023-05-24T14:24:29;27.14;36.94
71128;SHT30;59249;59.736;30.568;2023-05-24T14:26:58;27.28;37.07
71128;SHT30;59249;59.736;30.568;2023-05-24T14:29:27;27.33;37.28
71128;SHT30;59249;59.736;30.568;2023-05-24T14:31:56;27.48;36.16
71128;SHT30;59249;59.736;30.568;2023-05-24T14:34:26;27.80;35.58
71128;SHT30;59249;59.736;30.568;2023-05-24T14:36:55;27.99;34.90
71128;SHT30;59249;59.736;30.568;2023-05-24T14:39:24;28.23;34.71
71128;SHT30;59249;59.736;30.568;2023-05-24T14:41:53;27.94;35.40
71128;SHT30;59249;59.736;30.568;2023-05-24T14:44:21;27.71;35.49
71128;SHT30;59249;59.736;30.568;2023-05-24T14:46:50;27.67;35.88
71128;SHT30;59249;59.736;30.568;2023-05-24T14:49:21;27.83;36.03
71128;SHT30;59249;59.736;30.568;2023-05-24T14:51:51;28.06;35.73
71128;SHT30;59249;59.736;30.568;2023-05-24T14:54:20;28.32;35.12
71128;SHT30;59249;59.736;30.568;2023-05-24T14:56:49;28.49;35.18
71128;SHT30;59249;59.736;30.568;2023-05-24T14:59:18;28.66;35.33
71128;SHT30;59249;59.736;30.568;2023-05-24T15:01:47;28.47;35.28
71128;SHT30;59249;59.736;30.568;2023-05-24T15:04:16;28.31;34.92
71128;SHT30;59249;59.736;30.568;2023-05-24T15:06:44;27.82;34.80
71128;SHT30;59249;59.736;30.568;2023-05-24T15:09:14;27.14;36.00
71128;SHT30;59249;59.736;30.568;2023-05-24T15:11:44;27.15;36.42
71128;SHT30;59249;59.736;30.568;2023-05-24T15:14:13;27.21;36.29
71128;SHT30;59249;59.736;30.568;2023-05-24T15:16:42;27.25;36.08
71128;SHT30;59249;59.736;30.568;2023-05-24T15:19:11;26.87;36.74
71128;SHT30;59249;59.736;30.568;2023-05-24T15:21:40;27.01;36.43
71128;SHT30;59249;59.736;30.568;2023-05-24T15:24:08;27.31;36.11
71128;SHT30;59249;59.736;30.568;2023-05-24T15:26:39;27.77;35.56
71128;SHT30;59249;59.736;30.568;2023-05-24T15:29:08;27.95;35.88
71128;SHT30;59249;59.736;30.568;2023-05-24T15:31:37;28.08;35.85
71128;SHT30;59249;59.736;30.568;2023-05-24T15:34:06;28.30;35.34
71128;SHT30;59249;59.736;30.568;2023-05-24T15:36:35;28.02;35.81
71128;SHT30;59249;59.736;30.568;2023-05-24T15:39:04;28.03;35.95
71128;SHT30;59249;59.736;30.568;2023-05-24T15:41:34;27.98;35.89
71128;SHT30;59249;59.736;30.568;2023-05-24T15:44:05;28.09;36.11
71128;SHT30;59249;59.736;30.568;2023-05-24T15:46:35;28.23;35.69
71128;SHT30;59249;59.736;30.568;2023-05-24T15:49:04;28.25;35.24
71128;SHT30;59249;59.736;30.568;2023-05-24T15:51:32;27.96;35.64